createdAt,value
2019-04-16T00:01:32.409Z,46.67
2019-04-16T00:04:22.304Z,46.72
2019-04-16T00:06:52.966Z,46.67
2019-04-16T00:09:30.066Z,46.63
2019-04-16T00:12:04.302Z,46.70
2019-04-16T00:14:35.482Z,46.68
2019-04-16T00:17:05.144Z,46.89
2019-04-16T00:19:35.451Z,46.90
2019-04-16T00:22:12.643Z,46.86
2019-04-16T00:24:43.899Z,46.87
2019-04-16T00:27:13.466Z,46.87
2019-04-16T00:29:43.072Z,46.85
2019-04-16T00:32:14.305Z,46.87
2019-04-16T00:34:44.772Z,46.90
2019-04-16T00:37:14.981Z,46.95
2019-04-16T00:39:44.572Z,47.06
2019-04-16T00:42:14.179Z,46.95
2019-04-16T00:44:43.777Z,47.13
2019-04-16T00:47:13.427Z,47.04
2019-04-16T00:49:43.023Z,46.99
2019-04-16T00:52:12.606Z,47.10
2019-04-16T00:54:43.187Z,47.28
2019-04-16T00:57:17.769Z,47.45
2019-04-16T00:59:44.230Z,47.33
2019-04-16T01:02:13.808Z,47.37
2019-04-16T01:04:43.397Z,47.19
2019-04-16T01:07:12.991Z,47.30
2019-04-16T01:09:42.597Z,47.54
2019-04-16T01:12:12.196Z,47.54
2019-04-16T01:14:41.816Z,47.47
2019-04-16T01:17:11.425Z,47.60
2019-04-16T01:19:41.817Z,47.70
2019-04-16T01:22:15.764Z,47.64
2019-04-16T01:24:43.127Z,47.92
2019-04-16T01:27:12.698Z,47.93
2019-04-16T01:29:42.318Z,48.02
2019-04-16T01:32:29.613Z,48.00
2019-04-16T01:35:01.798Z,48.13
2019-04-16T01:37:41.623Z,48.03
2019-04-16T01:40:13.260Z,47.79
2019-04-16T01:42:42.847Z,47.90
2019-04-16T01:45:12.605Z,48.06
2019-04-16T01:47:42.200Z,47.89
2019-04-16T01:50:13.695Z,48.02
2019-04-16T01:52:43.118Z,48.15
2019-04-16T01:55:12.739Z,48.09
2019-04-16T01:57:42.329Z,48.23
2019-04-16T02:00:12.451Z,48.54
2019-04-16T02:02:43.496Z,48.67
2019-04-16T02:05:13.470Z,48.88
2019-04-16T02:07:43.994Z,49.02
2019-04-16T02:10:14.026Z,49.01
2019-04-16T02:12:43.950Z,49.06
2019-04-16T02:15:14.341Z,49.13
2019-04-16T02:17:44.008Z,49.29
2019-04-16T02:20:13.982Z,49.37
2019-04-16T02:22:45.117Z,49.45
2019-04-16T02:25:18.884Z,49.25
2019-04-16T02:27:46.251Z,49.21
2019-04-16T02:30:16.864Z,49.42
2019-04-16T02:32:46.466Z,49.61
2019-04-16T02:35:16.083Z,49.73
2019-04-16T02:37:45.665Z,49.71
2019-04-16T02:40:18.289Z,49.90
2019-04-16T02:42:46.674Z,49.98
2019-04-16T02:45:23.020Z,50.14
2019-04-16T02:47:47.619Z,50.22
2019-04-16T02:50:18.927Z,50.46
2019-04-16T02:52:58.838Z,50.56
2019-04-16T02:55:32.913Z,50.59
2019-04-16T02:58:09.741Z,50.71
2019-04-16T03:00:57.369Z,51.00
2019-04-16T03:03:31.450Z,51.10
2019-04-16T03:06:01.894Z,50.85
2019-04-16T03:08:35.637Z,50.73
2019-04-16T03:11:03.511Z,50.83
2019-04-16T03:13:33.108Z,51.02
2019-04-16T03:16:09.925Z,51.10
2019-04-16T03:18:50.132Z,51.14
2019-04-16T03:21:19.753Z,50.97
2019-04-16T03:23:49.336Z,51.14
2019-04-16T03:26:18.944Z,51.09
2019-04-16T03:28:48.540Z,51.21
2019-04-16T03:31:23.007Z,50.94
2019-04-16T03:33:51.032Z,51.11
2019-04-16T03:36:20.779Z,51.04
2019-04-16T03:38:50.360Z,51.28
2019-04-16T03:41:19.960Z,51.46
2019-04-16T03:43:49.550Z,51.39
2019-04-16T03:46:19.154Z,51.29
2019-04-16T03:48:48.759Z,51.07
2019-04-16T03:51:18.383Z,51.39
2019-04-16T03:53:49.581Z,51.53
2019-04-16T03:56:19.338Z,51.65
2019-04-16T03:58:48.938Z,51.80
2019-04-16T04:01:18.527Z,51.86
2019-04-16T04:03:48.120Z,51.99
2019-04-16T04:06:17.756Z,52.10
2019-04-16T04:08:48.327Z,52.40
2019-04-16T04:11:18.623Z,52.47
2019-04-16T04:13:50.066Z,52.45
2019-04-16T04:16:19.613Z,52.53
2019-04-16T04:18:50.776Z,52.49
2019-04-16T04:21:22.309Z,52.25
2019-04-16T04:23:51.687Z,52.29
2019-04-16T04:26:21.273Z,52.46
2019-04-16T04:28:51.762Z,52.52
2019-04-16T04:31:22.152Z,52.53
2019-04-16T04:33:51.741Z,52.57
2019-04-16T04:36:22.966Z,52.30
2019-04-16T04:38:53.763Z,52.46
2019-04-16T04:41:24.244Z,52.32
2019-04-16T04:43:53.939Z,52.40
2019-04-16T04:46:23.521Z,52.25
2019-04-16T04:48:55.337Z,51.93
2019-04-16T04:51:24.448Z,52.03
2019-04-16T04:53:54.044Z,51.84
2019-04-16T04:56:27.662Z,51.80
2019-04-16T04:58:55.053Z,51.69
2019-04-16T05:01:24.638Z,51.59
2019-04-16T05:03:56.573Z,51.42
2019-04-16T05:06:30.251Z,51.39
2019-04-16T05:09:00.461Z,51.21
2019-04-16T05:11:31.133Z,50.93
2019-04-16T05:14:00.734Z,50.74
2019-04-16T05:16:31.541Z,50.55
2019-04-16T05:19:01.685Z,50.40
2019-04-16T05:21:32.620Z,50.31
2019-04-16T05:24:02.247Z,49.91
2019-04-16T05:26:33.641Z,49.64
2019-04-16T05:29:16.305Z,49.67
2019-04-16T05:31:44.124Z,49.35
2019-04-16T05:34:16.996Z,49.08
2019-04-16T05:36:47.790Z,48.60
2019-04-16T05:39:16.374Z,48.31
2019-04-16T05:41:45.967Z,48.13
2019-04-16T05:44:15.571Z,47.58
2019-04-16T05:46:46.830Z,47.55
2019-04-16T05:49:18.973Z,47.39
2019-04-16T05:51:48.572Z,47.05
2019-04-16T05:54:35.788Z,46.57
2019-04-16T05:57:10.024Z,46.25
2019-04-16T05:59:39.644Z,46.12
2019-04-16T06:02:15.003Z,45.83
2019-04-16T06:04:44.823Z,45.36
2019-04-16T06:07:14.441Z,44.88
2019-04-16T06:09:45.491Z,44.68
2019-04-16T06:12:16.623Z,44.40
2019-04-16T06:14:56.644Z,43.99
2019-04-16T06:17:44.112Z,43.77
2019-04-16T06:20:20.533Z,43.50
2019-04-16T06:23:00.625Z,41.93
2019-04-16T06:25:34.215Z,40.77
2019-04-16T06:28:15.071Z,40.87
2019-04-16T06:30:46.341Z,41.29
2019-04-16T06:33:18.995Z,41.06
2019-04-16T06:35:50.215Z,40.87
2019-04-16T06:38:30.041Z,40.72
2019-04-16T06:41:10.306Z,40.69
2019-04-16T06:43:50.507Z,40.74
2019-04-16T06:46:28.556Z,40.28
2019-04-16T06:49:02.366Z,39.92
2019-04-16T06:51:33.657Z,39.46
2019-04-16T06:54:21.034Z,39.13
2019-04-16T06:56:50.545Z,38.96
2019-04-16T06:59:26.607Z,38.59
2019-04-16T07:02:01.940Z,38.47
2019-04-16T07:04:33.182Z,38.07
2019-04-16T07:07:21.815Z,37.59
2019-04-16T07:09:58.578Z,37.04
2019-04-16T07:12:28.586Z,36.50
2019-04-16T07:14:58.255Z,35.99
2019-04-16T07:17:33.288Z,35.75
2019-04-16T07:19:59.216Z,35.35
2019-04-16T07:22:28.841Z,34.89
2019-04-16T07:25:03.869Z,34.22
2019-04-16T07:27:35.060Z,33.88
2019-04-16T07:30:06.847Z,33.46
2019-04-16T07:32:37.383Z,33.01
2019-04-16T07:35:27.228Z,32.21
2019-04-16T07:37:58.699Z,32.05
2019-04-16T07:40:46.378Z,31.68
2019-04-16T07:43:31.026Z,31.47
2019-04-16T07:45:59.416Z,30.51
2019-04-16T07:48:32.808Z,29.74
2019-04-16T07:51:12.725Z,29.02
2019-04-16T07:53:47.472Z,28.08
2019-04-16T07:56:21.931Z,27.29
2019-04-16T07:58:51.679Z,25.96
2019-04-16T08:01:21.297Z,25.22
2019-04-16T08:03:50.905Z,24.13
2019-04-16T08:06:20.526Z,23.74
2019-04-16T08:08:50.199Z,22.87
2019-04-16T08:11:22.905Z,22.56
2019-04-16T08:13:51.136Z,21.85
2019-04-16T08:16:20.753Z,21.29
2019-04-16T08:18:51.032Z,20.55
2019-04-16T08:21:22.764Z,19.90
2019-04-16T08:23:56.394Z,19.02
2019-04-16T08:26:26.018Z,18.63
2019-04-16T08:28:55.780Z,17.65
2019-04-16T08:31:26.620Z,17.61
2019-04-16T08:33:56.238Z,17.24
2019-04-16T08:36:25.813Z,16.76
2019-04-16T08:38:55.447Z,16.52
2019-04-16T08:41:25.025Z,16.62
2019-04-16T08:43:54.646Z,16.63
2019-04-16T08:46:24.249Z,16.27
2019-04-16T08:48:54.350Z,15.67
2019-04-16T08:51:30.630Z,14.91
2019-04-16T08:53:55.681Z,14.89
2019-04-16T08:56:25.295Z,14.76
2019-04-16T08:58:59.997Z,14.21
2019-04-16T09:01:27.916Z,13.89
2019-04-16T09:04:01.524Z,13.80
2019-04-16T09:06:28.880Z,13.40
2019-04-16T09:09:12.467Z,13.24
2019-04-16T09:11:35.324Z,13.09
2019-04-16T09:14:06.800Z,12.92
2019-04-16T09:16:43.484Z,13.02
2019-04-16T09:19:16.426Z,12.95
2019-04-16T09:21:46.045Z,12.57
2019-04-16T09:24:22.846Z,12.37
2019-04-16T09:27:13.499Z,11.82
2019-04-16T09:30:00.782Z,11.77
2019-04-16T09:32:42.084Z,11.58
2019-04-16T09:35:31.598Z,11.40
2019-04-16T09:38:00.973Z,11.03
2019-04-16T09:40:49.240Z,11.02
2019-04-16T09:43:20.729Z,10.57
2019-04-16T09:45:50.333Z,10.34
2019-04-16T09:48:20.133Z,10.00
2019-04-16T09:50:49.821Z,10.05
2019-04-16T09:53:32.235Z,10.02
2019-04-16T09:55:51.310Z,9.43
2019-04-16T09:58:22.943Z,9.57
2019-04-16T10:01:03.181Z,9.17
2019-04-16T10:03:34.432Z,9.12
2019-04-16T10:06:05.731Z,8.83
2019-04-16T10:08:35.502Z,8.47
2019-04-16T10:11:06.211Z,8.09
2019-04-16T10:13:36.514Z,8.50
2019-04-16T10:16:06.879Z,7.91
2019-04-16T10:18:36.501Z,8.04
2019-04-16T10:21:06.147Z,7.56
2019-04-16T10:23:37.393Z,6.95
2019-04-16T10:26:07.063Z,7.11
2019-04-16T10:28:44.301Z,6.96
2019-04-16T10:31:15.896Z,7.03
2019-04-16T10:33:45.530Z,7.88
2019-04-16T10:36:15.154Z,7.36
2019-04-16T10:38:50.017Z,7.12
2019-04-16T10:41:29.839Z,7.19
2019-04-16T10:44:16.613Z,7.04
2019-04-16T10:46:47.902Z,6.93
2019-04-16T10:49:19.194Z,6.90
2019-04-16T10:51:51.158Z,6.89
2019-04-16T10:54:38.413Z,6.61
2019-04-16T10:57:16.421Z,6.54
2019-04-16T10:59:50.216Z,6.19
2019-04-16T11:02:37.523Z,5.63
2019-04-16T11:05:25.707Z,5.60
2019-04-16T11:07:57.079Z,5.92
2019-04-16T11:10:26.797Z,5.22
2019-04-16T11:12:56.374Z,5.27
2019-04-16T11:15:27.185Z,5.55
2019-04-16T11:17:56.813Z,5.30
2019-04-16T11:20:26.969Z,5.62
2019-04-16T11:22:56.570Z,5.27
2019-04-16T11:25:26.176Z,5.23
2019-04-16T11:27:55.907Z,5.44
2019-04-16T11:30:33.091Z,5.16
2019-04-16T11:33:03.109Z,5.39
2019-04-16T11:35:32.900Z,5.36
2019-04-16T11:38:02.765Z,5.40
2019-04-16T11:40:32.693Z,5.32
2019-04-16T11:43:02.298Z,4.79
2019-04-16T11:45:32.125Z,4.49
2019-04-16T11:48:01.760Z,4.15
2019-04-16T11:50:31.396Z,4.07
2019-04-16T11:53:01.038Z,4.10
2019-04-16T11:55:30.622Z,4.58
2019-04-16T11:58:00.254Z,4.93
2019-04-16T12:00:31.625Z,5.21
2019-04-16T12:03:06.886Z,4.96
2019-04-16T12:05:38.114Z,5.01
2019-04-16T12:08:09.521Z,5.09
2019-04-16T12:10:41.038Z,5.09
2019-04-16T12:13:28.206Z,5.71
2019-04-16T12:16:08.528Z,5.45
2019-04-16T12:18:48.408Z,5.24
2019-04-16T12:21:35.885Z,4.62
2019-04-16T12:24:07.242Z,4.33
2019-04-16T12:26:54.965Z,4.41
2019-04-16T12:29:35.038Z,4.15
2019-04-16T12:32:22.710Z,4.38
2019-04-16T12:35:05.824Z,4.68
2019-04-16T12:37:53.105Z,4.65
2019-04-16T12:40:26.929Z,5.07
2019-04-16T12:43:03.747Z,4.85
2019-04-16T12:45:38.708Z,4.60
2019-04-16T12:48:10.067Z,4.16
2019-04-16T12:50:57.410Z,4.05
2019-04-16T12:53:28.643Z,4.24
2019-04-16T12:55:58.513Z,4.04
2019-04-16T12:58:50.688Z,3.99
2019-04-16T13:01:26.992Z,4.01
2019-04-16T13:04:00.760Z,3.98
2019-04-16T13:06:34.384Z,3.97
2019-04-16T13:09:14.232Z,4.00
2019-04-16T13:11:47.896Z,4.12
2019-04-16T13:14:23.785Z,3.82
2019-04-16T13:17:03.914Z,3.83
2019-04-16T13:19:39.602Z,3.93
2019-04-16T13:22:36.135Z,3.85
2019-04-16T13:25:09.752Z,3.80
2019-04-16T13:27:40.977Z,3.92
2019-04-16T13:30:12.300Z,4.16
2019-04-16T13:32:41.917Z,4.09
2019-04-16T13:35:11.600Z,4.23
2019-04-16T13:37:41.209Z,4.57
2019-04-16T13:40:14.793Z,4.56
2019-04-16T13:42:44.411Z,4.43
2019-04-16T13:45:27.959Z,4.46
2019-04-16T13:48:13.935Z,4.30
2019-04-16T13:50:40.736Z,4.28
2019-04-16T13:53:10.109Z,4.20
2019-04-16T13:55:49.512Z,4.32
2019-04-16T13:58:26.119Z,4.56
2019-04-16T14:00:57.366Z,4.62
2019-04-16T14:03:26.973Z,4.97
2019-04-16T14:05:57.760Z,5.24
2019-04-16T14:08:27.369Z,5.21
2019-04-16T14:10:56.988Z,5.38
2019-04-16T14:13:27.663Z,5.32
2019-04-16T14:15:57.284Z,5.29
2019-04-16T14:18:29.670Z,5.30
2019-04-16T14:21:00.396Z,5.33
2019-04-16T14:23:31.812Z,5.25
2019-04-16T14:26:01.456Z,5.35
2019-04-16T14:28:34.309Z,5.46
2019-04-16T14:31:03.467Z,5.76
2019-04-16T14:33:34.695Z,5.81
2019-04-16T14:36:04.970Z,5.74
2019-04-16T14:38:45.347Z,5.97
2019-04-16T14:41:16.148Z,8.48
2019-04-16T14:43:47.476Z,11.27
2019-04-16T14:46:17.109Z,13.27
2019-04-16T14:48:46.858Z,14.47
2019-04-16T14:51:16.507Z,15.59
2019-04-16T14:53:56.447Z,17.09
2019-04-16T14:56:30.543Z,17.19
2019-04-16T14:59:07.903Z,17.99
2019-04-16T15:01:49.206Z,18.60
2019-04-16T15:04:22.025Z,18.86
2019-04-16T15:06:56.136Z,19.59
2019-04-16T15:09:37.097Z,19.37
2019-04-16T15:12:12.246Z,19.64
2019-04-16T15:14:52.373Z,19.40
2019-04-16T15:17:32.334Z,19.53
2019-04-16T15:20:21.190Z,20.11
2019-04-16T15:22:59.351Z,20.28
2019-04-16T15:25:32.133Z,19.81
2019-04-16T15:28:09.361Z,20.49
2019-04-16T15:30:49.132Z,20.88
2019-04-16T15:33:20.404Z,20.55
2019-04-16T15:35:51.667Z,20.92
2019-04-16T15:38:33.236Z,20.93
2019-04-16T15:41:20.421Z,21.04
2019-04-16T15:44:07.719Z,20.47
2019-04-16T15:46:52.264Z,20.65
2019-04-16T15:49:39.514Z,20.51
2019-04-16T15:52:10.336Z,20.80
2019-04-16T15:54:47.687Z,21.26
2019-04-16T15:57:20.473Z,21.28
2019-04-16T16:00:07.903Z,20.94
2019-04-16T16:02:47.756Z,20.95
2019-04-16T16:05:17.251Z,20.69
2019-04-16T16:07:56.087Z,20.78
2019-04-16T16:10:29.467Z,20.95
2019-04-16T16:12:59.713Z,21.29
2019-04-16T16:15:29.641Z,21.58
2019-04-16T16:17:59.775Z,21.79
2019-04-16T16:20:29.587Z,22.24
2019-04-16T16:22:59.811Z,23.66
2019-04-16T16:25:29.756Z,23.38
2019-04-16T16:28:00.020Z,23.24
2019-04-16T16:30:30.346Z,23.38
2019-04-16T16:33:02.703Z,24.24
2019-04-16T16:35:34.854Z,24.38
2019-04-16T16:38:03.723Z,24.66
2019-04-16T16:40:35.037Z,24.81
2019-04-16T16:43:07.943Z,24.27
2019-04-16T16:45:54.820Z,24.56
2019-04-16T16:48:35.814Z,24.84
2019-04-16T16:51:05.982Z,24.96
2019-04-16T16:53:54.467Z,25.36
2019-04-16T16:56:28.569Z,25.50
2019-04-16T16:59:01.374Z,25.42
2019-04-16T17:01:35.201Z,25.83
2019-04-16T17:04:04.681Z,25.75
2019-04-16T17:06:34.297Z,25.88
2019-04-16T17:09:05.707Z,26.07
2019-04-16T17:11:35.327Z,26.40
2019-04-16T17:14:05.156Z,26.57
2019-04-16T17:16:34.774Z,26.80
2019-04-16T17:19:04.656Z,26.43
2019-04-16T17:21:34.245Z,26.66
2019-04-16T17:24:04.719Z,26.53
2019-04-16T17:26:34.312Z,26.79
2019-04-16T17:29:03.932Z,26.67
2019-04-16T17:31:36.021Z,26.96
2019-04-16T17:34:07.238Z,26.87
2019-04-16T17:36:36.853Z,27.17
2019-04-16T17:39:10.792Z,27.33
2019-04-16T17:41:55.274Z,27.46
2019-04-16T17:44:45.454Z,27.70
2019-04-16T17:47:31.373Z,27.80
2019-04-16T17:49:49.703Z,27.92
2019-04-16T17:52:26.607Z,28.11
2019-04-16T17:54:57.905Z,28.05
2019-04-16T17:57:34.991Z,28.23
2019-04-16T18:00:14.890Z,28.32
2019-04-16T18:02:46.127Z,27.93
2019-04-16T18:05:17.361Z,28.75
2019-04-16T18:07:46.729Z,28.44
2019-04-16T18:10:34.582Z,28.42
2019-04-16T18:13:21.765Z,28.37
2019-04-16T18:15:51.160Z,28.15
2019-04-16T18:18:28.161Z,28.16
2019-04-16T18:21:15.357Z,28.11
2019-04-16T18:23:58.648Z,28.11
2019-04-16T18:26:28.050Z,28.19
2019-04-16T18:29:02.656Z,28.26
2019-04-16T18:31:36.833Z,28.39
2019-04-16T18:34:09.117Z,28.60
2019-04-16T18:36:46.730Z,28.77
2019-04-16T18:39:37.208Z,28.64
2019-04-16T18:42:07.315Z,28.77
2019-04-16T18:44:57.812Z,28.94
2019-04-16T18:47:34.726Z,29.02
2019-04-16T18:50:07.202Z,29.25
2019-04-16T18:52:37.489Z,29.42
2019-04-16T18:55:08.718Z,29.61
2019-04-16T18:57:39.190Z,29.63
2019-04-16T19:00:14.881Z,29.71
2019-04-16T19:02:44.480Z,30.04
2019-04-16T19:05:14.092Z,30.26
2019-04-16T19:07:43.711Z,30.10
2019-04-16T19:10:13.329Z,30.12
2019-04-16T19:12:42.944Z,30.30
2019-04-16T19:15:12.540Z,30.15
2019-04-16T19:17:42.139Z,30.30
2019-04-16T19:20:17.039Z,30.20
2019-04-16T19:22:43.140Z,30.53
2019-04-16T19:25:12.745Z,30.46
2019-04-16T19:27:42.357Z,30.32
2019-04-16T19:30:12.365Z,30.49
2019-04-16T19:32:42.002Z,30.77
2019-04-16T19:35:17.546Z,30.75
2019-04-16T19:37:42.949Z,30.75
2019-04-16T19:40:16.052Z,30.68
2019-04-16T19:42:44.055Z,30.77
2019-04-16T19:45:13.642Z,31.00
2019-04-16T19:47:43.259Z,31.03
2019-04-16T19:50:13.494Z,31.35
2019-04-16T19:52:45.651Z,31.24
2019-04-16T19:55:14.505Z,30.75
2019-04-16T19:57:45.665Z,31.13
2019-04-16T20:00:21.948Z,31.37
2019-04-16T20:02:47.018Z,31.08
2019-04-16T20:05:18.320Z,31.56
2019-04-16T20:07:48.563Z,31.69
2019-04-16T20:10:18.173Z,31.75
2019-04-16T20:12:47.788Z,31.86
2019-04-16T20:15:18.057Z,31.63
2019-04-16T20:17:48.257Z,31.86
2019-04-16T20:20:17.854Z,32.18
2019-04-16T20:22:47.469Z,31.92
2019-04-16T20:25:17.090Z,32.21
2019-04-16T20:27:46.699Z,32.35
2019-04-16T20:30:16.343Z,32.36
2019-04-16T20:32:45.963Z,32.80
2019-04-16T20:35:18.870Z,32.70
2019-04-16T20:37:46.926Z,32.86
2019-04-16T20:40:17.831Z,32.95
2019-04-16T20:42:47.896Z,32.76
2019-04-16T20:45:17.488Z,33.09
2019-04-16T20:47:47.114Z,33.14
2019-04-16T20:50:20.529Z,33.05
2019-04-16T20:52:48.034Z,33.07
2019-04-16T20:55:17.880Z,33.20
2019-04-16T20:57:47.484Z,33.36
2019-04-16T21:00:18.996Z,33.24
2019-04-16T21:02:51.148Z,33.39
2019-04-16T21:05:22.322Z,33.30
2019-04-16T21:07:51.261Z,33.44
2019-04-16T21:10:20.863Z,33.30
2019-04-16T21:12:50.486Z,33.17
2019-04-16T21:15:20.093Z,33.20
2019-04-16T21:17:49.727Z,33.51
2019-04-16T21:20:20.487Z,33.45
2019-04-16T21:22:50.233Z,33.21
2019-04-16T21:25:19.815Z,33.42
2019-04-16T21:27:51.069Z,33.34
2019-04-16T21:30:20.668Z,33.26
2019-04-16T21:33:03.745Z,33.53
2019-04-16T21:35:34.946Z,33.49
2019-04-16T21:38:18.405Z,33.37
2019-04-16T21:40:47.999Z,33.62
2019-04-16T21:43:17.613Z,33.75
2019-04-16T21:45:48.252Z,33.78
2019-04-16T21:48:18.638Z,33.70
2019-04-16T21:50:48.431Z,33.87
2019-04-16T21:53:18.113Z,33.89
2019-04-16T21:55:47.726Z,33.73
2019-04-16T21:58:17.673Z,33.88
2019-04-16T22:00:49.654Z,34.07
2019-04-16T22:03:23.610Z,34.17
2019-04-16T22:05:53.224Z,34.39
2019-04-16T22:08:22.839Z,34.36
2019-04-16T22:10:52.459Z,34.72
2019-04-16T22:13:22.056Z,34.75
2019-04-16T22:15:53.795Z,34.53
2019-04-16T22:18:22.990Z,34.76
2019-04-16T22:20:52.595Z,35.10
2019-04-16T22:23:22.199Z,35.24
2019-04-16T22:25:51.799Z,35.24
2019-04-16T22:28:22.107Z,35.36
2019-04-16T22:30:52.331Z,35.39
2019-04-16T22:33:21.923Z,35.44
2019-04-16T22:35:51.526Z,35.53
2019-04-16T22:38:21.129Z,35.62
2019-04-16T22:40:58.056Z,35.80
2019-04-16T22:43:29.293Z,36.01
2019-04-16T22:45:58.669Z,35.72
2019-04-16T22:48:28.323Z,35.80
2019-04-16T22:50:57.944Z,35.77
2019-04-16T22:53:27.548Z,35.75
2019-04-16T22:55:58.041Z,35.70
2019-04-16T22:58:29.430Z,35.77
2019-04-16T23:01:00.747Z,35.50
2019-04-16T23:03:30.417Z,35.55
2019-04-16T23:06:00.899Z,35.87
2019-04-16T23:08:31.343Z,35.78
2019-04-16T23:11:01.115Z,35.82
2019-04-16T23:13:32.628Z,35.81
2019-04-16T23:16:03.154Z,35.89
2019-04-16T23:18:32.709Z,36.06
2019-04-16T23:21:02.328Z,35.95
2019-04-16T23:23:31.923Z,36.17
2019-04-16T23:26:01.588Z,36.22
2019-04-16T23:28:31.160Z,36.32
2019-04-16T23:31:00.765Z,36.67
2019-04-16T23:33:32.800Z,36.64
2019-04-16T23:36:01.719Z,36.85
2019-04-16T23:38:32.390Z,36.98
2019-04-16T23:41:02.135Z,37.08
2019-04-16T23:43:39.973Z,37.01
2019-04-16T23:46:38.651Z,37.07
2019-04-16T23:49:26.576Z,36.99
2019-04-16T23:52:03.858Z,37.03
2019-04-16T23:54:40.700Z,36.63
2019-04-16T23:57:21.625Z,36.89
